createdAt,value
2023-05-02T00:02:06.821Z,11.71
2023-05-02T00:04:34.778Z,11.60
2023-05-02T00:07:02.794Z,11.56
2023-05-02T00:09:30.754Z,11.58
2023-05-02T00:11:59.855Z,11.39
2023-05-02T00:14:27.548Z,11.39
2023-05-02T00:16:55.747Z,11.30
2023-05-02T00:19:23.522Z,11.22
2023-05-02T00:21:51.362Z,11.14
2023-05-02T00:24:19.455Z,11.05
2023-05-02T00:26:47.556Z,11.06
2023-05-02T00:29:16.641Z,11.04
2023-05-02T00:31:44.378Z,11.03
2023-05-02T00:34:12.103Z,11.04
2023-05-02T00:36:40.084Z,11.06
2023-05-02T00:39:07.747Z,11.06
2023-05-02T00:41:35.662Z,11.01
2023-05-02T00:44:03.642Z,10.90
2023-05-02T00:46:32.723Z,10.84
2023-05-02T00:49:01.560Z,10.81
2023-05-02T00:51:29.283Z,10.71
2023-05-02T00:53:57.782Z,10.61
2023-05-02T00:56:25.511Z,10.51
2023-05-02T00:58:53.628Z,10.45
2023-05-02T01:01:38.155Z,10.39
2023-05-02T01:04:21.378Z,10.38
2023-05-02T01:07:01.103Z,10.28
2023-05-02T01:09:40.994Z,10.31
2023-05-02T01:12:17.405Z,10.39
2023-05-02T01:14:51.931Z,10.33
2023-05-02T01:17:24.103Z,10.30
2023-05-02T01:19:56.076Z,10.20
2023-05-02T01:22:26.696Z,10.17
2023-05-02T01:25:04.638Z,10.20
2023-05-02T01:27:38.385Z,10.21
2023-05-02T01:30:09.194Z,10.14
2023-05-02T01:32:40.801Z,10.10
2023-05-02T01:35:10.185Z,10.05
2023-05-02T01:37:39.146Z,9.96
2023-05-02T01:40:09.726Z,9.91
2023-05-02T01:42:38.322Z,9.83
2023-05-02T01:45:09.769Z,9.82
2023-05-02T01:47:39.104Z,9.87
2023-05-02T01:50:10.370Z,9.74
2023-05-02T01:52:38.416Z,9.83
2023-05-02T01:55:10.381Z,9.72
2023-05-02T01:57:41.134Z,9.70
2023-05-02T02:00:12.039Z,9.67
2023-05-02T02:02:42.032Z,9.52
2023-05-02T02:05:11.639Z,9.52
2023-05-02T02:07:39.618Z,9.53
2023-05-02T02:10:08.450Z,9.53
2023-05-02T02:12:41.352Z,9.54
2023-05-02T02:15:18.460Z,9.55
2023-05-02T02:17:50.788Z,9.51
2023-05-02T02:20:20.301Z,9.44
2023-05-02T02:22:49.449Z,9.33
2023-05-02T02:25:18.672Z,9.31
2023-05-02T02:27:46.342Z,9.26
2023-05-02T02:30:16.496Z,9.26
2023-05-02T02:32:44.355Z,9.23
2023-05-02T02:35:12.623Z,9.14
2023-05-02T02:37:46.856Z,9.17
2023-05-02T02:40:23.042Z,9.18
2023-05-02T02:42:58.767Z,9.17
2023-05-02T02:45:36.868Z,9.15
2023-05-02T02:48:18.303Z,9.18
2023-05-02T02:50:56.081Z,9.20
2023-05-02T02:53:28.896Z,9.20
2023-05-02T02:56:01.548Z,9.23
2023-05-02T02:58:37.910Z,9.17
2023-05-02T03:01:12.804Z,9.12
2023-05-02T03:03:43.439Z,9.13
2023-05-02T03:06:11.180Z,9.18
2023-05-02T03:08:42.124Z,9.12
2023-05-02T03:11:09.966Z,9.15
2023-05-02T03:13:38.407Z,9.19
2023-05-02T03:16:37.094Z,9.21
2023-05-02T03:19:05.140Z,9.23
2023-05-02T03:21:32.861Z,9.18
2023-05-02T03:24:01.576Z,9.04
2023-05-02T03:26:29.950Z,9.01
2023-05-02T03:28:58.087Z,9.03
2023-05-02T03:31:26.805Z,8.97
2023-05-02T03:33:56.073Z,8.99
2023-05-02T03:36:23.685Z,9.02
2023-05-02T03:38:51.752Z,9.07
2023-05-02T03:41:20.894Z,9.10
2023-05-02T03:43:48.655Z,9.14
2023-05-02T03:46:16.447Z,9.22
2023-05-02T03:48:46.418Z,9.22
2023-05-02T03:51:15.616Z,9.27
2023-05-02T03:53:43.507Z,9.34
2023-05-02T03:56:11.121Z,9.41
2023-05-02T03:58:38.810Z,9.40
2023-05-02T04:01:15.496Z,9.46
2023-05-02T04:03:43.573Z,9.59
2023-05-02T04:06:13.096Z,9.62
2023-05-02T04:08:42.516Z,9.70
2023-05-02T04:11:10.148Z,9.73
2023-05-02T04:13:37.808Z,9.73
2023-05-02T04:16:06.078Z,9.74
2023-05-02T04:18:33.967Z,9.81
2023-05-02T04:21:01.669Z,9.84
2023-05-02T04:23:29.429Z,9.98
2023-05-02T04:25:58.872Z,10.03
2023-05-02T04:28:26.547Z,10.05
2023-05-02T04:30:54.472Z,10.08
2023-05-02T04:33:22.165Z,10.06
2023-05-02T04:35:50.218Z,10.14
2023-05-02T04:38:18.099Z,10.18
2023-05-02T04:40:45.932Z,10.25
2023-05-02T04:43:15.012Z,10.28
2023-05-02T04:45:42.704Z,10.35
2023-05-02T04:48:10.511Z,10.37
2023-05-02T04:50:38.193Z,10.41
2023-05-02T04:53:06.376Z,10.47
2023-05-02T04:55:34.103Z,10.55
2023-05-02T04:58:01.729Z,10.49
2023-05-02T05:00:30.864Z,10.64
2023-05-02T05:03:00.137Z,10.77
2023-05-02T05:05:29.389Z,10.85
2023-05-02T05:07:57.320Z,10.91
2023-05-02T05:10:25.138Z,10.98
2023-05-02T05:12:53.398Z,11.04
2023-05-02T05:15:22.470Z,11.05
2023-05-02T05:17:51.566Z,11.10
2023-05-02T05:20:19.909Z,11.10
2023-05-02T05:22:47.994Z,11.05
2023-05-02T05:25:16.002Z,11.05
2023-05-02T05:27:43.670Z,11.25
2023-05-02T05:30:12.292Z,11.12
2023-05-02T05:32:40.086Z,11.16
2023-05-02T05:35:10.055Z,11.07
2023-05-02T05:37:39.458Z,11.16
2023-05-02T05:40:08.651Z,11.22
2023-05-02T05:43:00.497Z,11.21
2023-05-02T05:45:28.181Z,11.49
2023-05-02T05:47:55.986Z,11.66
2023-05-02T05:50:25.214Z,11.71
2023-05-02T05:52:52.924Z,12.02
2023-05-02T05:55:20.562Z,12.05
2023-05-02T05:57:48.181Z,12.01
2023-05-02T06:00:17.035Z,12.32
2023-05-02T06:02:44.755Z,12.30
2023-05-02T06:05:12.635Z,12.11
2023-05-02T06:07:41.719Z,12.52
2023-05-02T06:10:10.886Z,12.69
2023-05-02T06:12:38.655Z,12.67
2023-05-02T06:15:07.263Z,12.62
2023-05-02T06:17:35.092Z,12.71
2023-05-02T06:20:03.030Z,13.08
2023-05-02T06:22:30.979Z,13.09
2023-05-02T06:25:00.878Z,13.35
2023-05-02T06:27:28.851Z,13.38
2023-05-02T06:29:56.700Z,13.53
2023-05-02T06:32:24.443Z,13.75
2023-05-02T06:34:52.253Z,13.20
2023-05-02T06:37:20.020Z,13.29
2023-05-02T06:39:47.730Z,13.75
2023-05-02T06:42:17.105Z,14.10
2023-05-02T06:44:44.774Z,14.10
2023-05-02T06:47:12.470Z,13.73
2023-05-02T06:49:40.341Z,13.81
2023-05-02T06:52:08.176Z,13.89
2023-05-02T06:54:35.964Z,13.81
2023-05-02T06:57:04.155Z,13.74
2023-05-02T06:59:33.358Z,13.38
2023-05-02T07:02:03.051Z,13.38
2023-05-02T07:04:32.915Z,13.67
2023-05-02T07:07:01.139Z,14.15
2023-05-02T07:09:29.044Z,13.61
2023-05-02T07:11:57.083Z,13.69
2023-05-02T07:14:24.880Z,13.55
2023-05-02T07:16:54.923Z,13.52
2023-05-02T07:19:22.760Z,13.91
2023-05-02T07:21:50.495Z,14.30
2023-05-02T07:24:18.385Z,14.22
2023-05-02T07:26:46.067Z,13.96
2023-05-02T07:29:13.782Z,14.19
2023-05-02T07:31:41.526Z,14.22
2023-05-02T07:34:10.618Z,14.21
2023-05-02T07:36:38.266Z,14.38
2023-05-02T07:39:06.196Z,14.47
2023-05-02T07:41:34.144Z,14.54
2023-05-02T07:44:01.818Z,14.39
2023-05-02T07:46:29.506Z,14.45
2023-05-02T07:48:57.257Z,14.31
2023-05-02T07:51:26.852Z,14.77
2023-05-02T07:53:58.307Z,14.88
2023-05-02T07:56:26.076Z,14.62
2023-05-02T07:58:54.169Z,14.49
2023-05-02T08:01:21.977Z,14.64
2023-05-02T08:03:50.037Z,14.65
2023-05-02T08:06:18.153Z,15.34
2023-05-02T08:08:47.575Z,15.36
2023-05-02T08:11:15.696Z,15.76
2023-05-02T08:13:43.509Z,15.90
2023-05-02T08:16:11.364Z,16.26
2023-05-02T08:18:39.172Z,16.31
2023-05-02T08:21:07.100Z,16.31
2023-05-02T08:23:35.036Z,16.54
2023-05-02T08:26:04.530Z,16.47
2023-05-02T08:28:32.295Z,16.30
2023-05-02T08:31:00.006Z,16.42
2023-05-02T08:33:27.856Z,16.22
2023-05-02T08:35:55.694Z,15.62
2023-05-02T08:38:23.601Z,15.33
2023-05-02T08:40:51.468Z,15.19
2023-05-02T08:43:21.195Z,15.49
2023-05-02T08:45:51.179Z,15.38
2023-05-02T08:48:20.321Z,15.41
2023-05-02T08:50:49.600Z,15.69
2023-05-02T08:53:19.052Z,15.61
2023-05-02T08:55:47.702Z,15.07
2023-05-02T08:58:16.302Z,15.21
2023-05-02T09:00:50.935Z,14.80
2023-05-02T09:03:30.281Z,15.21
2023-05-02T09:06:06.319Z,14.96
2023-05-02T09:08:34.759Z,14.87
2023-05-02T09:11:03.852Z,15.55
2023-05-02T09:13:33.168Z,15.50
2023-05-02T09:16:03.426Z,15.45
2023-05-02T09:18:33.965Z,15.60
2023-05-02T09:21:02.965Z,15.90
2023-05-02T09:23:35.329Z,15.77
2023-05-02T09:26:03.372Z,15.97
2023-05-02T09:28:42.168Z,15.86
2023-05-02T09:31:16.830Z,15.96
2023-05-02T09:33:46.841Z,16.21
2023-05-02T09:36:16.148Z,16.36
2023-05-02T09:38:45.048Z,16.31
2023-05-02T09:41:12.863Z,16.02
2023-05-02T09:43:41.348Z,16.18
2023-05-02T09:46:11.916Z,16.01
2023-05-02T09:48:56.876Z,16.02
2023-05-02T09:51:25.787Z,16.21
2023-05-02T09:53:54.103Z,16.81
2023-05-02T09:56:23.357Z,17.05
2023-05-02T09:58:51.790Z,17.42
2023-05-02T10:01:21.586Z,17.16
2023-05-02T10:03:50.232Z,17.05
2023-05-02T10:06:18.352Z,17.05
2023-05-02T10:08:47.621Z,16.53
2023-05-02T10:11:15.772Z,16.68
2023-05-02T10:13:44.943Z,17.04
2023-05-02T10:16:14.199Z,16.40
2023-05-02T10:18:49.297Z,16.93
2023-05-02T10:21:19.126Z,16.52
2023-05-02T10:23:47.798Z,16.72
2023-05-02T10:26:17.541Z,16.42
2023-05-02T10:28:45.794Z,16.64
2023-05-02T10:31:14.942Z,17.02
2023-05-02T10:33:44.222Z,16.90
2023-05-02T10:36:14.059Z,17.13
2023-05-02T10:38:43.184Z,17.42
2023-05-02T10:41:15.161Z,17.12
2023-05-02T10:43:48.989Z,18.17
2023-05-02T10:46:33.183Z,18.38
2023-05-02T10:49:07.271Z,19.27
2023-05-02T10:51:36.441Z,19.29
2023-05-02T10:54:23.439Z,19.20
2023-05-02T10:57:06.086Z,18.04
2023-05-02T10:59:36.927Z,18.54
2023-05-02T11:02:07.066Z,19.16
2023-05-02T11:05:10.322Z,19.92
2023-05-02T11:07:39.025Z,20.33
2023-05-02T11:10:27.437Z,20.59
2023-05-02T11:12:56.632Z,20.06
2023-05-02T11:15:57.991Z,18.39
2023-05-02T11:18:25.740Z,18.40
2023-05-02T11:21:29.952Z,18.48
2023-05-02T11:24:35.045Z,17.62
2023-05-02T11:27:38.521Z,18.38
2023-05-02T11:30:07.653Z,17.61
2023-05-02T11:33:18.137Z,17.67
2023-05-02T11:35:47.544Z,17.85
2023-05-02T11:38:18.859Z,18.00
2023-05-02T11:41:00.230Z,17.45
2023-05-02T11:43:31.753Z,17.60
2023-05-02T11:46:02.204Z,18.11
2023-05-02T11:48:31.633Z,17.74
2023-05-02T11:51:03.419Z,18.29
2023-05-02T11:53:33.128Z,18.32
2023-05-02T11:56:02.191Z,18.40
2023-05-02T11:58:32.912Z,18.49
2023-05-02T12:01:12.381Z,19.44
2023-05-02T12:03:40.732Z,18.72
2023-05-02T12:06:13.079Z,18.51
2023-05-02T12:08:43.836Z,18.58
2023-05-02T12:11:14.618Z,19.37
2023-05-02T12:13:47.083Z,19.15
2023-05-02T12:16:15.363Z,18.09
2023-05-02T12:18:44.055Z,17.89
2023-05-02T12:21:11.913Z,17.52
2023-05-02T12:23:42.925Z,16.86
2023-05-02T12:26:22.153Z,17.21
2023-05-02T12:28:51.380Z,17.50
2023-05-02T12:31:19.711Z,18.02
2023-05-02T12:33:50.182Z,17.86
2023-05-02T12:36:18.495Z,17.33
2023-05-02T12:38:52.994Z,18.21
2023-05-02T12:41:31.254Z,17.91
2023-05-02T12:44:01.024Z,18.34
2023-05-02T12:46:29.340Z,18.44
2023-05-02T12:49:04.002Z,18.73
2023-05-02T12:51:32.911Z,18.87
2023-05-02T12:54:02.327Z,19.09
2023-05-02T12:56:33.080Z,19.12
2023-05-02T12:59:05.683Z,18.90
2023-05-02T13:01:35.211Z,19.79
2023-05-02T13:04:03.736Z,19.82
2023-05-02T13:06:32.016Z,19.89
2023-05-02T13:09:00.108Z,20.18
2023-05-02T13:11:29.438Z,21.02
2023-05-02T13:13:57.183Z,21.46
2023-05-02T13:16:25.972Z,21.15
2023-05-02T13:18:54.217Z,20.57
2023-05-02T13:21:22.018Z,20.69
2023-05-02T13:23:50.529Z,19.93
2023-05-02T13:26:18.475Z,20.45
2023-05-02T13:28:47.579Z,20.94
2023-05-02T13:31:15.263Z,21.34
2023-05-02T13:33:43.114Z,20.77
2023-05-02T13:36:10.950Z,19.81
2023-05-02T13:38:38.786Z,19.03
2023-05-02T13:41:06.758Z,19.83
2023-05-02T13:43:34.631Z,18.99
2023-05-02T13:46:03.757Z,18.82
2023-05-02T13:48:31.492Z,18.74
2023-05-02T13:50:59.065Z,19.40
2023-05-02T13:53:26.712Z,19.44
2023-05-02T13:55:54.404Z,18.67
2023-05-02T13:58:22.210Z,19.38
2023-05-02T14:00:49.823Z,19.36
2023-05-02T14:03:20.806Z,19.31
2023-05-02T14:05:48.475Z,18.54
2023-05-02T14:08:18.373Z,19.52
2023-05-02T14:10:46.239Z,18.77
2023-05-02T14:13:13.812Z,18.61
2023-05-02T14:15:41.515Z,18.58
2023-05-02T14:18:09.417Z,18.61
2023-05-02T14:20:38.437Z,18.49
2023-05-02T14:23:07.585Z,18.68
2023-05-02T14:25:35.458Z,18.72
2023-05-02T14:28:03.537Z,18.79
2023-05-02T14:30:32.121Z,17.64
2023-05-02T14:32:59.828Z,18.23
2023-05-02T14:35:27.415Z,18.45
2023-05-02T14:37:56.690Z,17.87
2023-05-02T14:40:24.400Z,18.00
2023-05-02T14:42:52.215Z,17.49
2023-05-02T14:45:20.212Z,18.09
2023-05-02T14:47:48.119Z,17.74
2023-05-02T14:50:16.115Z,17.95
2023-05-02T14:52:46.178Z,17.98
2023-05-02T14:55:15.248Z,17.98
2023-05-02T14:57:43.150Z,18.24
2023-05-02T15:00:11.826Z,17.96
2023-05-02T15:02:39.712Z,17.97
2023-05-02T15:05:12.451Z,18.91
2023-05-02T15:07:40.467Z,19.19
2023-05-02T15:10:09.289Z,18.31
2023-05-02T15:12:38.307Z,17.74
2023-05-02T15:15:06.855Z,17.92
2023-05-02T15:17:34.639Z,17.86
2023-05-02T15:20:02.432Z,18.47
2023-05-02T15:22:30.603Z,18.48
2023-05-02T15:24:58.300Z,18.62
2023-05-02T15:27:25.963Z,18.28
2023-05-02T15:29:54.998Z,18.63
2023-05-02T15:32:22.745Z,18.53
2023-05-02T15:34:50.581Z,17.51
2023-05-02T15:37:18.338Z,18.05
2023-05-02T15:39:46.104Z,17.94
2023-05-02T15:42:14.599Z,17.81
2023-05-02T15:44:42.753Z,18.18
2023-05-02T15:47:11.984Z,18.41
2023-05-02T15:49:40.136Z,18.28
2023-05-02T15:52:07.791Z,17.88
2023-05-02T15:54:35.493Z,17.98
2023-05-02T15:57:03.668Z,17.73
2023-05-02T15:59:31.317Z,18.04
2023-05-02T16:01:58.984Z,18.29
2023-05-02T16:04:29.052Z,18.87
2023-05-02T16:06:56.784Z,18.47
2023-05-02T16:09:24.584Z,18.41
2023-05-02T16:11:52.223Z,18.16
2023-05-02T16:14:23.807Z,18.02
2023-05-02T16:16:51.583Z,18.32
2023-05-02T16:19:19.209Z,18.64
2023-05-02T16:21:48.502Z,18.54
2023-05-02T16:24:16.261Z,18.55
2023-05-02T16:26:43.918Z,18.40
2023-05-02T16:29:11.557Z,17.68
2023-05-02T16:31:39.302Z,17.70
2023-05-02T16:34:07.066Z,17.61
2023-05-02T16:36:34.742Z,17.61
2023-05-02T16:39:03.808Z,17.88
2023-05-02T16:41:31.419Z,17.83
2023-05-02T16:43:59.081Z,18.16
2023-05-02T16:46:26.755Z,18.09
2023-05-02T16:48:54.534Z,17.51
2023-05-02T16:51:22.662Z,17.93
2023-05-02T16:53:50.351Z,17.82
2023-05-02T16:56:19.359Z,18.09
2023-05-02T16:58:47.032Z,18.28
2023-05-02T17:01:14.736Z,18.05
2023-05-02T17:03:42.572Z,17.89
2023-05-02T17:06:10.354Z,17.51
2023-05-02T17:08:38.125Z,17.65
2023-05-02T17:11:07.660Z,17.58
2023-05-02T17:13:36.753Z,17.57
2023-05-02T17:16:04.645Z,16.97
2023-05-02T17:18:34.214Z,16.65
2023-05-02T17:21:03.931Z,16.76
2023-05-02T17:23:31.997Z,16.74
2023-05-02T17:25:59.744Z,16.80
2023-05-02T17:28:27.464Z,16.41
2023-05-02T17:30:59.224Z,16.45
2023-05-02T17:33:27.482Z,16.30
2023-05-02T17:35:56.930Z,16.06
2023-05-02T17:38:24.709Z,16.10
2023-05-02T17:40:52.677Z,15.82
2023-05-02T17:43:45.310Z,15.93
2023-05-02T17:46:14.319Z,15.75
2023-05-02T17:48:44.056Z,15.71
2023-05-02T17:51:12.453Z,15.75
2023-05-02T17:53:40.448Z,15.36
2023-05-02T17:56:08.360Z,15.41
2023-05-02T17:58:37.373Z,15.39
2023-05-02T18:01:09.074Z,15.05
2023-05-02T18:03:39.500Z,15.12
2023-05-02T18:06:08.082Z,15.33
2023-05-02T18:08:36.175Z,15.15
2023-05-02T18:11:04.154Z,14.97
2023-05-02T18:13:32.301Z,14.89
2023-05-02T18:16:01.499Z,14.89
2023-05-02T18:18:29.554Z,14.91
2023-05-02T18:20:58.776Z,14.59
2023-05-02T18:23:26.628Z,14.51
2023-05-02T18:25:54.478Z,14.64
2023-05-02T18:28:22.646Z,14.45
2023-05-02T18:30:50.477Z,14.52
2023-05-02T18:33:18.211Z,14.63
2023-05-02T18:35:47.620Z,14.41
2023-05-02T18:38:17.530Z,14.25
2023-05-02T18:40:45.350Z,14.21
2023-05-02T18:43:13.235Z,13.92
2023-05-02T18:45:41.214Z,14.10
2023-05-02T18:48:09.074Z,14.27
2023-05-02T18:50:37.014Z,13.94
2023-05-02T18:53:05.060Z,13.92
2023-05-02T18:55:34.670Z,13.87
2023-05-02T18:58:02.470Z,13.63
2023-05-02T19:00:31.591Z,13.66
2023-05-02T19:02:59.887Z,13.71
2023-05-02T19:05:28.087Z,13.74
2023-05-02T19:07:56.113Z,13.58
2023-05-02T19:10:23.956Z,13.38
2023-05-02T19:12:52.959Z,13.42
2023-05-02T19:15:20.759Z,13.28
2023-05-02T19:17:48.582Z,13.40
2023-05-02T19:20:16.549Z,13.58
2023-05-02T19:22:46.103Z,13.27
2023-05-02T19:25:14.135Z,13.39
2023-05-02T19:27:42.291Z,13.05
2023-05-02T19:30:13.616Z,12.94
2023-05-02T19:32:41.484Z,12.93
2023-05-02T19:35:09.867Z,13.05
2023-05-02T19:37:37.588Z,13.00
2023-05-02T19:40:06.105Z,12.86
2023-05-02T19:42:33.847Z,12.93
2023-05-02T19:45:01.648Z,12.91
2023-05-02T19:47:32.574Z,12.90
2023-05-02T19:50:00.343Z,12.79
2023-05-02T19:52:28.220Z,12.76
2023-05-02T19:54:55.944Z,12.34
2023-05-02T19:57:23.843Z,12.39
2023-05-02T19:59:51.525Z,12.43
2023-05-02T20:02:19.334Z,12.43
2023-05-02T20:04:48.397Z,12.31
2023-05-02T20:07:16.070Z,12.20
2023-05-02T20:09:43.737Z,12.27
2023-05-02T20:12:11.464Z,12.14
2023-05-02T20:14:40.772Z,11.98
2023-05-02T20:17:08.854Z,12.25
2023-05-02T20:19:36.597Z,12.30
2023-05-02T20:22:05.647Z,11.93
2023-05-02T20:24:33.317Z,12.03
2023-05-02T20:27:01.306Z,12.01
2023-05-02T20:29:29.028Z,11.94
2023-05-02T20:31:56.797Z,11.87
2023-05-02T20:34:24.510Z,11.80
2023-05-02T20:36:52.536Z,11.89
2023-05-02T20:39:21.845Z,11.80
2023-05-02T20:41:50.006Z,11.95
2023-05-02T20:44:18.652Z,11.79
2023-05-02T20:46:46.389Z,11.69
2023-05-02T20:49:14.156Z,11.52
2023-05-02T20:51:41.945Z,11.87
2023-05-02T20:54:09.590Z,11.71
2023-05-02T20:56:38.626Z,11.56
2023-05-02T20:59:06.332Z,11.80
2023-05-02T21:01:34.350Z,11.60
2023-05-02T21:04:03.412Z,11.49
2023-05-02T21:06:31.416Z,11.44
2023-05-02T21:08:59.175Z,11.09
2023-05-02T21:11:26.874Z,11.61
2023-05-02T21:13:55.834Z,11.38
2023-05-02T21:16:23.817Z,11.32
2023-05-02T21:18:51.576Z,11.26
2023-05-02T21:21:19.496Z,11.33
2023-05-02T21:23:47.292Z,11.33
2023-05-02T21:26:14.940Z,11.31
2023-05-02T21:28:42.636Z,11.30
2023-05-02T21:31:11.895Z,10.85
2023-05-02T21:33:39.566Z,10.92
2023-05-02T21:36:07.705Z,11.03
2023-05-02T21:38:35.455Z,10.81
2023-05-02T21:41:04.308Z,11.03
2023-05-02T21:43:32.764Z,10.91
2023-05-02T21:46:01.015Z,10.98
2023-05-02T21:48:30.050Z,10.80
2023-05-02T21:50:57.658Z,10.85
2023-05-02T21:53:26.978Z,10.86
2023-05-02T21:55:54.615Z,10.85
2023-05-02T21:58:22.246Z,10.67
2023-05-02T22:00:50.056Z,10.64
2023-05-02T22:03:17.793Z,10.67
2023-05-02T22:05:49.761Z,10.61
2023-05-02T22:08:18.006Z,10.61
2023-05-02T22:10:45.959Z,10.55
2023-05-02T22:13:15.828Z,10.22
2023-05-02T22:15:45.309Z,10.66
2023-05-02T22:18:13.819Z,10.43
2023-05-02T22:20:41.933Z,10.42
2023-05-02T22:23:12.665Z,10.36
2023-05-02T22:25:42.344Z,10.47
2023-05-02T22:28:11.471Z,10.36
2023-05-02T22:30:39.769Z,10.21
2023-05-02T22:33:08.435Z,10.17
2023-05-02T22:35:37.296Z,10.00
2023-05-02T22:38:05.715Z,10.01
2023-05-02T22:40:34.700Z,10.14
2023-05-02T22:43:02.558Z,10.01
2023-05-02T22:45:30.484Z,10.08
2023-05-02T22:47:58.180Z,9.69
2023-05-02T22:50:26.468Z,9.83
2023-05-02T22:52:56.798Z,9.77
2023-05-02T22:55:24.863Z,9.75
2023-05-02T22:57:53.892Z,9.55
2023-05-02T23:00:22.494Z,9.94
2023-05-02T23:02:50.448Z,9.78
2023-05-02T23:05:18.222Z,9.71
2023-05-02T23:07:45.853Z,9.66
2023-05-02T23:10:13.482Z,9.34
2023-05-02T23:12:41.840Z,9.60
2023-05-02T23:15:11.892Z,9.52
2023-05-02T23:17:41.286Z,9.75
2023-05-02T23:20:11.281Z,9.57
2023-05-02T23:22:45.312Z,9.73
2023-05-02T23:25:13.970Z,9.56
2023-05-02T23:27:41.585Z,9.47
2023-05-02T23:30:11.467Z,9.20
2023-05-02T23:32:39.659Z,9.53
2023-05-02T23:35:08.475Z,9.46
2023-05-02T23:37:36.113Z,9.40
2023-05-02T23:40:04.194Z,9.39
2023-05-02T23:42:34.218Z,9.32
2023-05-02T23:45:01.917Z,9.41
2023-05-02T23:47:30.943Z,9.21
2023-05-02T23:49:58.686Z,9.30
2023-05-02T23:52:26.765Z,9.19
2023-05-02T23:54:54.658Z,8.83
2023-05-02T23:57:22.307Z,9.25
2023-05-02T23:59:50.052Z,9.09
